»·PEaware :: N688NX KSLC-KJAC

N688NX :: KSLC-KJAC

FLIGHT INFORMATION

Flight Status: Arrived
Operator: Privately registered:
United States
More flights under this callsign
Pilot: Anonymous 1753 (1753)
Aircraft: CANADAIR CL-600 CHALLENGER
(CL60)
More flights by this aircraft type
Origin: KSLC Salt Lake City Intl
United States
Destination: KJAC Jackson Hole
United States
More flights between these airports :: More routes between these airports
Route: RUGGD3 HOLTR EBACA MOSSS
File this flight plan on PilotEdge
Remarks:
Altitude:
(Current/Filed)
34,000ft
Speed:
(Current/Filed)
466kts
Departed: 21-Nov-23 09:29 PM
Arrived: 21-Nov-23 10:12 PM
Distance/Time
Traveled:
177nm/0:43
Distance/Time
To Go:
Arrived

Flight Plot

Page will automatically refresh every two minutes.

Flight plan parsing failed; only flown route is shown


Map Options




Map Legend


Flown Route
Filed Route
Departure Airport
Arrival Airport
Navaid (VOR, NDB)
Fix

Horizontal Profiles

Position Reports

Time Latitude Longitude Heading Altitude Ground
Speed
21-Nov-23 20:56 40.775557 -111.959358 357 4227ft 0kts
21-Nov-23 20:57 40.775557 -111.959358 357 4227ft 0kts
21-Nov-23 20:58 40.775557 -111.959358 357 4227ft 0kts
21-Nov-23 20:59 40.775557 -111.959358 357 4227ft 0kts
21-Nov-23 21:00 40.775557 -111.959358 357 4227ft 0kts
21-Nov-23 21:01 40.775557 -111.959358 357 4227ft 0kts
21-Nov-23 21:02 40.775557 -111.959358 357 4227ft 0kts
21-Nov-23 21:03 40.775557 -111.959358 357 4227ft 0kts
21-Nov-23 21:04 40.775557 -111.959358 357 4227ft 0kts
21-Nov-23 21:05 40.775557 -111.959358 357 4227ft 0kts
21-Nov-23 21:06 40.775557 -111.959358 357 4227ft 0kts
21-Nov-23 21:07 40.775557 -111.959358 357 4227ft 0kts
21-Nov-23 21:08 40.775557 -111.959358 357 4227ft 0kts
21-Nov-23 21:09 40.775557 -111.959358 357 4227ft 0kts
21-Nov-23 21:10 40.775557 -111.959358 357 4227ft 0kts
21-Nov-23 21:11 40.775557 -111.959358 357 4227ft 0kts
21-Nov-23 21:12 40.775557 -111.959358 357 4227ft 0kts
21-Nov-23 21:13 40.775557 -111.959358 357 4227ft 0kts
21-Nov-23 21:14 40.775557 -111.959358 357 4227ft 0kts
21-Nov-23 21:15 40.775557 -111.959358 357 4227ft 0kts
21-Nov-23 21:16 40.775557 -111.959358 357 4227ft 0kts
21-Nov-23 21:17 40.775557 -111.959358 357 4227ft 0kts
21-Nov-23 21:18 40.775557 -111.959358 357 4227ft 0kts
21-Nov-23 21:19 40.775557 -111.959358 357 4227ft 0kts
21-Nov-23 21:20 40.775557 -111.959358 357 4227ft 0kts
21-Nov-23 21:21 40.775557 -111.959358 357 4227ft 0kts
21-Nov-23 21:22 40.775557 -111.959358 357 4227ft 0kts
21-Nov-23 21:23 40.776935 -111.960653 358 4227ft 14kts
21-Nov-23 21:24 40.782727 -111.960025 0 4225ft 25kts
21-Nov-23 21:25 40.792191 -111.960059 359 4223ft 36kts
21-Nov-23 21:26 40.798870 -111.960462 276 4224ft 0kts
21-Nov-23 21:27 40.798062 -111.962006 181 4224ft 23kts
21-Nov-23 21:28 40.770037 -111.993574 278 6778ft 209kts
21-Nov-23 21:29 40.801723 -112.055633 306 11494ft 217kts
21-Nov-23 21:30 40.852826 -112.087435 17 15705ft 250kts
21-Nov-23 21:31 40.930954 -112.057732 15 18754ft 321kts
21-Nov-23 21:32 41.019462 -112.026384 14 22658ft 336kts
21-Nov-23 21:33 41.079246 -111.930224 62 25833ft 368kts
21-Nov-23 21:34 41.124194 -111.803753 53 28609ft 386kts
21-Nov-23 21:35 41.218175 -111.748034 6 30974ft 384kts
21-Nov-23 21:36 41.325726 -111.722412 5 33121ft 397kts
21-Nov-23 21:37 41.437585 -111.689555 11 34431ft 423kts
21-Nov-23 21:39 41.555008 -111.643014 11 34685ft 457kts
21-Nov-23 21:40 41.679583 -111.593622 12 34702ft 467kts
21-Nov-23 21:41 41.804592 -111.544742 8 34702ft 463kts
21-Nov-23 21:42 41.931000 -111.515857 5 34716ft 461kts
21-Nov-23 21:43 42.058454 -111.487361 5 34691ft 460kts
21-Nov-23 21:44 42.185159 -111.458770 5 34657ft 460kts
21-Nov-23 21:45 42.310334 -111.418681 17 34645ft 467kts
21-Nov-23 21:46 42.426375 -111.334136 25 34488ft 474kts
21-Nov-23 21:47 42.536402 -111.248994 26 32628ft 441kts
21-Nov-23 21:48 42.640091 -111.168604 26 30510ft 417kts
21-Nov-23 21:49 42.739200 -111.091160 26 28125ft 404kts
21-Nov-23 21:50 42.835249 -111.015694 26 25782ft 392kts
21-Nov-23 21:51 42.928581 -110.942119 26 24952ft 387kts
21-Nov-23 21:52 43.015942 -110.872910 25 24272ft 344kts
21-Nov-23 21:53 43.098272 -110.807589 25 22435ft 338kts
21-Nov-23 21:54 43.179652 -110.742790 25 20487ft 334kts
21-Nov-23 21:55 43.259861 -110.678658 25 18588ft 330kts
21-Nov-23 21:56 43.338366 -110.615733 25 16991ft 316kts
21-Nov-23 21:57 43.411117 -110.551867 31 15011ft 305kts
21-Nov-23 21:58 43.479380 -110.484579 31 14009ft 300kts
21-Nov-23 21:59 43.547898 -110.417144 31 13996ft 301kts
21-Nov-23 22:00 43.616342 -110.349627 31 14016ft 301kts
21-Nov-23 22:01 43.687309 -110.289735 0 13982ft 286kts
21-Nov-23 22:02 43.762088 -110.311668 341 12971ft 275kts
21-Nov-23 22:03 43.820790 -110.349212 287 12794ft 202kts
21-Nov-23 22:04 43.821380 -110.432252 264 11325ft 225kts
21-Nov-23 22:05 43.815945 -110.510369 263 11006ft 179kts
21-Nov-23 22:06 43.800143 -110.573884 244 10802ft 185kts
21-Nov-23 22:07 43.776036 -110.628893 221 10105ft 150kts
21-Nov-23 22:08 43.742348 -110.665464 221 9414ft 152kts
21-Nov-23 22:09 43.703705 -110.691140 201 8310ft 154kts
21-Nov-23 22:09 43.669588 -110.707394 201 7595ft 154kts
21-Nov-23 22:11 43.622314 -110.730603 199 6649ft 151kts
21-Nov-23 22:12 43.599676 -110.740990 125 6416ft 7kts
21-Nov-23 22:13 43.598257 -110.739357 27 6416ft 0kts
21-Nov-23 22:14 43.598269 -110.739351 20 6416ft 0kts
21-Nov-23 22:15 43.598269 -110.739351 20 6416ft 0kts
21-Nov-23 22:15 43.598269 -110.739351 20 6416ft 0kts
21-Nov-23 22:17 43.598269 -110.739351 20 6416ft 0kts
21-Nov-23 22:18 43.598269 -110.739351 20 6416ft 0kts

Navigation Log

Ident Type
Flight plan parsing failed, navigation log unavailable